sensor_id;sensor_type;location;lat;lon;timestamp;P1;durP1;ratioP1;P2;durP2;ratioP2
72590;SDS011;60625;51.212;5.952;2024-03-08T00:04:52;24.40;;;14.00;;
72590;SDS011;60625;51.212;5.952;2024-03-08T00:09:53;27.20;;;13.90;;
72590;SDS011;60625;51.212;5.952;2024-03-08T00:14:54;23.70;;;14.40;;
72590;SDS011;60625;51.212;5.952;2024-03-08T00:19:55;25.90;;;13.50;;
72590;SDS011;60625;51.212;5.952;2024-03-08T00:24:55;25.40;;;14.50;;
72590;SDS011;60625;51.212;5.952;2024-03-08T00:29:57;28.80;;;14.60;;
72590;SDS011;60625;51.212;5.952;2024-03-08T00:34:59;29.30;;;13.60;;
72590;SDS011;60625;51.212;5.952;2024-03-08T00:40:00;26.40;;;13.40;;
72590;SDS011;60625;51.212;5.952;2024-03-08T00:45:01;24.40;;;14.20;;
72590;SDS011;60625;51.212;5.952;2024-03-08T00:50:04;26.20;;;14.10;;
72590;SDS011;60625;51.212;5.952;2024-03-08T00:55:05;25.40;;;14.20;;
72590;SDS011;60625;51.212;5.952;2024-03-08T01:00:07;28.50;;;14.10;;
72590;SDS011;60625;51.212;5.952;2024-03-08T01:05:13;27.10;;;14.40;;
72590;SDS011;60625;51.212;5.952;2024-03-08T01:10:13;28.00;;;14.70;;
72590;SDS011;60625;51.212;5.952;2024-03-08T01:15:14;24.40;;;14.70;;
72590;SDS011;60625;51.212;5.952;2024-03-08T01:20:15;26.00;;;15.10;;
72590;SDS011;60625;51.212;5.952;2024-03-08T01:25:16;25.70;;;14.30;;
72590;SDS011;60625;51.212;5.952;2024-03-08T01:30:17;24.60;;;14.90;;
72590;SDS011;60625;51.212;5.952;2024-03-08T01:35:18;28.00;;;14.10;;
72590;SDS011;60625;51.212;5.952;2024-03-08T01:40:22;27.90;;;14.40;;
72590;SDS011;60625;51.212;5.952;2024-03-08T01:45:28;26.20;;;14.90;;
72590;SDS011;60625;51.212;5.952;2024-03-08T01:50:29;29.30;;;14.70;;
72590;SDS011;60625;51.212;5.952;2024-03-08T01:55:30;28.00;;;15.10;;
72590;SDS011;60625;51.212;5.952;2024-03-08T02:00:32;29.50;;;15.90;;
72590;SDS011;60625;51.212;5.952;2024-03-08T02:05:35;29.40;;;16.00;;
72590;SDS011;60625;51.212;5.952;2024-03-08T02:10:36;26.50;;;15.40;;
72590;SDS011;60625;51.212;5.952;2024-03-08T02:15:57;27.60;;;15.70;;
72590;SDS011;60625;51.212;5.952;2024-03-08T02:21:06;25.70;;;13.80;;
72590;SDS011;60625;51.212;5.952;2024-03-08T02:26:08;26.50;;;14.30;;
72590;SDS011;60625;51.212;5.952;2024-03-08T02:31:09;30.90;;;15.60;;
72590;SDS011;60625;51.212;5.952;2024-03-08T02:36:09;29.10;;;14.00;;
72590;SDS011;60625;51.212;5.952;2024-03-08T02:41:10;29.20;;;15.10;;
72590;SDS011;60625;51.212;5.952;2024-03-08T02:46:12;29.10;;;15.70;;
72590;SDS011;60625;51.212;5.952;2024-03-08T02:51:13;28.80;;;15.60;;
72590;SDS011;60625;51.212;5.952;2024-03-08T02:56:16;29.70;;;15.70;;
72590;SDS011;60625;51.212;5.952;2024-03-08T03:01:18;31.90;;;16.40;;
72590;SDS011;60625;51.212;5.952;2024-03-08T03:06:20;30.20;;;15.40;;
72590;SDS011;60625;51.212;5.952;2024-03-08T03:11:21;33.80;;;14.90;;
72590;SDS011;60625;51.212;5.952;2024-03-08T03:16:22;32.90;;;16.90;;
72590;SDS011;60625;51.212;5.952;2024-03-08T03:21:23;31.50;;;16.40;;
72590;SDS011;60625;51.212;5.952;2024-03-08T03:26:23;30.00;;;16.10;;
72590;SDS011;60625;51.212;5.952;2024-03-08T03:31:26;31.40;;;15.80;;
72590;SDS011;60625;51.212;5.952;2024-03-08T03:36:30;33.10;;;16.50;;
72590;SDS011;60625;51.212;5.952;2024-03-08T03:41:31;31.80;;;16.20;;
72590;SDS011;60625;51.212;5.952;2024-03-08T03:46:33;31.50;;;16.20;;
72590;SDS011;60625;51.212;5.952;2024-03-08T03:51:34;30.30;;;15.70;;
72590;SDS011;60625;51.212;5.952;2024-03-08T03:56:35;33.10;;;16.90;;
72590;SDS011;60625;51.212;5.952;2024-03-08T04:01:42;33.60;;;16.40;;
72590;SDS011;60625;51.212;5.952;2024-03-08T04:06:43;31.10;;;16.70;;
72590;SDS011;60625;51.212;5.952;2024-03-08T04:11:45;32.40;;;16.40;;
72590;SDS011;60625;51.212;5.952;2024-03-08T04:16:46;34.00;;;17.20;;
72590;SDS011;60625;51.212;5.952;2024-03-08T04:21:48;29.80;;;15.90;;
72590;SDS011;60625;51.212;5.952;2024-03-08T04:26:49;31.80;;;16.10;;
72590;SDS011;60625;51.212;5.952;2024-03-08T04:31:50;33.30;;;16.30;;
72590;SDS011;60625;51.212;5.952;2024-03-08T04:36:57;33.80;;;16.70;;
72590;SDS011;60625;51.212;5.952;2024-03-08T04:42:02;30.50;;;16.10;;
72590;SDS011;60625;51.212;5.952;2024-03-08T04:47:10;34.40;;;16.60;;
72590;SDS011;60625;51.212;5.952;2024-03-08T04:52:11;31.90;;;16.70;;
72590;SDS011;60625;51.212;5.952;2024-03-08T04:57:16;33.60;;;17.40;;
72590;SDS011;60625;51.212;5.952;2024-03-08T05:02:18;33.50;;;15.70;;
72590;SDS011;60625;51.212;5.952;2024-03-08T05:07:19;31.10;;;16.70;;
72590;SDS011;60625;51.212;5.952;2024-03-08T05:12:22;34.90;;;16.30;;
72590;SDS011;60625;51.212;5.952;2024-03-08T05:17:23;34.00;;;17.20;;
72590;SDS011;60625;51.212;5.952;2024-03-08T05:22:26;33.70;;;15.40;;
72590;SDS011;60625;51.212;5.952;2024-03-08T05:27:28;37.60;;;17.20;;
72590;SDS011;60625;51.212;5.952;2024-03-08T05:32:29;35.20;;;16.50;;
72590;SDS011;60625;51.212;5.952;2024-03-08T05:37:30;32.20;;;16.70;;
72590;SDS011;60625;51.212;5.952;2024-03-08T05:42:31;34.00;;;16.90;;
72590;SDS011;60625;51.212;5.952;2024-03-08T05:47:35;35.10;;;17.40;;
72590;SDS011;60625;51.212;5.952;2024-03-08T05:52:39;34.80;;;16.80;;
72590;SDS011;60625;51.212;5.952;2024-03-08T05:57:41;30.40;;;15.70;;
72590;SDS011;60625;51.212;5.952;2024-03-08T06:02:43;37.80;;;18.80;;
72590;SDS011;60625;51.212;5.952;2024-03-08T06:07:44;35.10;;;17.80;;
72590;SDS011;60625;51.212;5.952;2024-03-08T06:12:45;33.20;;;16.00;;
72590;SDS011;60625;51.212;5.952;2024-03-08T06:17:45;37.20;;;17.10;;
72590;SDS011;60625;51.212;5.952;2024-03-08T06:22:47;32.20;;;17.00;;
72590;SDS011;60625;51.212;5.952;2024-03-08T06:27:48;37.60;;;18.20;;
72590;SDS011;60625;51.212;5.952;2024-03-08T06:32:49;30.10;;;15.60;;
72590;SDS011;60625;51.212;5.952;2024-03-08T06:37:49;39.90;;;18.70;;
72590;SDS011;60625;51.212;5.952;2024-03-08T06:42:50;33.40;;;16.10;;
72590;SDS011;60625;51.212;5.952;2024-03-08T06:47:58;37.20;;;17.10;;
72590;SDS011;60625;51.212;5.952;2024-03-08T06:53:01;35.50;;;18.50;;
72590;SDS011;60625;51.212;5.952;2024-03-08T06:58:04;39.30;;;18.20;;
72590;SDS011;60625;51.212;5.952;2024-03-08T07:03:08;35.00;;;18.00;;
72590;SDS011;60625;51.212;5.952;2024-03-08T07:08:12;36.60;;;17.60;;
72590;SDS011;60625;51.212;5.952;2024-03-08T07:13:18;36.50;;;18.10;;
72590;SDS011;60625;51.212;5.952;2024-03-08T07:18:19;34.70;;;17.00;;
72590;SDS011;60625;51.212;5.952;2024-03-08T07:23:19;37.40;;;18.40;;
72590;SDS011;60625;51.212;5.952;2024-03-08T07:28:39;33.00;;;16.80;;
72590;SDS011;60625;51.212;5.952;2024-03-08T07:33:40;35.70;;;18.90;;
72590;SDS011;60625;51.212;5.952;2024-03-08T07:38:42;37.40;;;18.00;;
72590;SDS011;60625;51.212;5.952;2024-03-08T07:43:43;35.20;;;18.50;;
72590;SDS011;60625;51.212;5.952;2024-03-08T07:48:44;34.90;;;17.70;;
72590;SDS011;60625;51.212;5.952;2024-03-08T07:53:45;33.40;;;17.00;;
72590;SDS011;60625;51.212;5.952;2024-03-08T07:58:46;39.10;;;20.60;;
72590;SDS011;60625;51.212;5.952;2024-03-08T08:03:48;34.80;;;17.70;;
72590;SDS011;60625;51.212;5.952;2024-03-08T08:08:51;37.50;;;18.90;;
72590;SDS011;60625;51.212;5.952;2024-03-08T08:13:52;37.70;;;18.00;;
72590;SDS011;60625;51.212;5.952;2024-03-08T08:18:54;33.80;;;17.80;;
72590;SDS011;60625;51.212;5.952;2024-03-08T08:23:55;35.10;;;16.80;;
72590;SDS011;60625;51.212;5.952;2024-03-08T08:28:56;36.10;;;17.80;;
72590;SDS011;60625;51.212;5.952;2024-03-08T08:33:57;31.00;;;16.40;;
72590;SDS011;60625;51.212;5.952;2024-03-08T08:39:00;35.80;;;17.60;;
72590;SDS011;60625;51.212;5.952;2024-03-08T08:44:06;29.80;;;16.80;;
72590;SDS011;60625;51.212;5.952;2024-03-08T08:49:13;31.30;;;15.90;;
72590;SDS011;60625;51.212;5.952;2024-03-08T08:54:20;28.60;;;16.40;;
72590;SDS011;60625;51.212;5.952;2024-03-08T08:59:25;26.50;;;14.50;;
72590;SDS011;60625;51.212;5.952;2024-03-08T09:04:27;30.90;;;16.40;;
72590;SDS011;60625;51.212;5.952;2024-03-08T09:09:29;30.80;;;15.60;;
72590;SDS011;60625;51.212;5.952;2024-03-08T09:14:30;27.40;;;13.70;;
72590;SDS011;60625;51.212;5.952;2024-03-08T09:19:30;25.10;;;13.60;;
72590;SDS011;60625;51.212;5.952;2024-03-08T09:24:34;26.50;;;14.30;;
72590;SDS011;60625;51.212;5.952;2024-03-08T09:29:34;26.10;;;15.30;;
72590;SDS011;60625;51.212;5.952;2024-03-08T09:34:36;26.30;;;15.20;;
72590;SDS011;60625;51.212;5.952;2024-03-08T09:39:38;29.20;;;15.10;;
72590;SDS011;60625;51.212;5.952;2024-03-08T09:44:39;25.50;;;12.40;;
72590;SDS011;60625;51.212;5.952;2024-03-08T09:49:45;27.30;;;12.80;;
72590;SDS011;60625;51.212;5.952;2024-03-08T09:54:46;27.20;;;13.10;;
72590;SDS011;60625;51.212;5.952;2024-03-08T09:59:47;26.80;;;13.80;;
72590;SDS011;60625;51.212;5.952;2024-03-08T10:04:48;21.80;;;12.10;;
72590;SDS011;60625;51.212;5.952;2024-03-08T10:09:51;26.20;;;13.90;;
72590;SDS011;60625;51.212;5.952;2024-03-08T10:14:58;27.60;;;14.00;;
72590;SDS011;60625;51.212;5.952;2024-03-08T10:20:00;25.20;;;12.80;;
72590;SDS011;60625;51.212;5.952;2024-03-08T10:25:00;22.40;;;12.80;;
72590;SDS011;60625;51.212;5.952;2024-03-08T10:30:01;21.00;;;12.10;;
72590;SDS011;60625;51.212;5.952;2024-03-08T10:35:16;20.80;;;11.40;;
72590;SDS011;60625;51.212;5.952;2024-03-08T10:40:18;20.10;;;11.90;;
72590;SDS011;60625;51.212;5.952;2024-03-08T10:45:38;22.70;;;12.20;;
72590;SDS011;60625;51.212;5.952;2024-03-08T10:50:43;26.90;;;12.30;;
72590;SDS011;60625;51.212;5.952;2024-03-08T10:55:58;25.50;;;12.70;;
72590;SDS011;60625;51.212;5.952;2024-03-08T11:00:59;22.60;;;12.40;;
72590;SDS011;60625;51.212;5.952;2024-03-08T11:06:01;23.20;;;11.60;;
72590;SDS011;60625;51.212;5.952;2024-03-08T11:11:01;21.60;;;11.40;;
72590;SDS011;60625;51.212;5.952;2024-03-08T11:16:13;25.10;;;11.10;;
72590;SDS011;60625;51.212;5.952;2024-03-08T11:21:26;20.10;;;11.30;;
72590;SDS011;60625;51.212;5.952;2024-03-08T11:26:27;21.10;;;11.20;;
72590;SDS011;60625;51.212;5.952;2024-03-08T11:31:31;22.40;;;12.20;;
72590;SDS011;60625;51.212;5.952;2024-03-08T11:36:42;19.30;;;11.50;;
72590;SDS011;60625;51.212;5.952;2024-03-08T11:41:43;21.60;;;12.80;;
72590;SDS011;60625;51.212;5.952;2024-03-08T11:46:45;20.00;;;11.50;;
72590;SDS011;60625;51.212;5.952;2024-03-08T11:51:53;34.20;;;11.60;;
72590;SDS011;60625;51.212;5.952;2024-03-08T11:56:54;23.10;;;11.10;;
72590;SDS011;60625;51.212;5.952;2024-03-08T12:02:01;23.10;;;11.00;;
72590;SDS011;60625;51.212;5.952;2024-03-08T12:07:03;20.70;;;9.80;;
72590;SDS011;60625;51.212;5.952;2024-03-08T12:12:12;21.30;;;10.00;;
72590;SDS011;60625;51.212;5.952;2024-03-08T12:17:13;24.50;;;9.70;;
72590;SDS011;60625;51.212;5.952;2024-03-08T12:22:30;23.90;;;10.70;;
72590;SDS011;60625;51.212;5.952;2024-03-08T12:27:34;22.00;;;10.00;;
72590;SDS011;60625;51.212;5.952;2024-03-08T12:32:55;18.60;;;9.80;;
72590;SDS011;60625;51.212;5.952;2024-03-08T12:37:59;22.30;;;10.00;;
72590;SDS011;60625;51.212;5.952;2024-03-08T12:43:01;20.30;;;10.20;;
72590;SDS011;60625;51.212;5.952;2024-03-08T12:48:12;23.70;;;10.50;;
72590;SDS011;60625;51.212;5.952;2024-03-08T12:53:21;17.60;;;9.50;;
72590;SDS011;60625;51.212;5.952;2024-03-08T12:58:25;19.60;;;9.90;;
72590;SDS011;60625;51.212;5.952;2024-03-08T13:03:29;15.80;;;9.50;;
72590;SDS011;60625;51.212;5.952;2024-03-08T13:08:30;18.20;;;10.20;;
72590;SDS011;60625;51.212;5.952;2024-03-08T13:13:31;15.70;;;9.00;;
72590;SDS011;60625;51.212;5.952;2024-03-08T13:18:36;19.80;;;9.30;;
72590;SDS011;60625;51.212;5.952;2024-03-08T13:23:37;18.50;;;8.80;;
72590;SDS011;60625;51.212;5.952;2024-03-08T13:28:42;17.90;;;9.60;;
72590;SDS011;60625;51.212;5.952;2024-03-08T13:33:45;20.20;;;9.50;;
72590;SDS011;60625;51.212;5.952;2024-03-08T13:38:48;18.60;;;9.20;;
72590;SDS011;60625;51.212;5.952;2024-03-08T13:43:49;19.00;;;9.70;;
72590;SDS011;60625;51.212;5.952;2024-03-08T13:48:50;17.70;;;10.00;;
72590;SDS011;60625;51.212;5.952;2024-03-08T13:53:51;20.00;;;9.70;;
72590;SDS011;60625;51.212;5.952;2024-03-08T13:58:52;22.30;;;9.70;;
72590;SDS011;60625;51.212;5.952;2024-03-08T14:03:53;17.50;;;9.40;;
72590;SDS011;60625;51.212;5.952;2024-03-08T14:08:54;20.40;;;9.40;;
72590;SDS011;60625;51.212;5.952;2024-03-08T14:14:01;17.60;;;9.50;;
72590;SDS011;60625;51.212;5.952;2024-03-08T14:19:04;20.60;;;9.00;;
72590;SDS011;60625;51.212;5.952;2024-03-08T14:24:09;20.80;;;10.00;;
72590;SDS011;60625;51.212;5.952;2024-03-08T14:29:15;20.20;;;10.30;;
72590;SDS011;60625;51.212;5.952;2024-03-08T14:34:16;18.00;;;9.20;;
72590;SDS011;60625;51.212;5.952;2024-03-08T14:39:17;17.40;;;9.70;;
72590;SDS011;60625;51.212;5.952;2024-03-08T14:44:25;16.80;;;8.50;;
72590;SDS011;60625;51.212;5.952;2024-03-08T14:49:26;18.30;;;9.20;;
72590;SDS011;60625;51.212;5.952;2024-03-08T14:54:29;18.70;;;9.80;;
72590;SDS011;60625;51.212;5.952;2024-03-08T14:59:36;17.50;;;9.30;;
72590;SDS011;60625;51.212;5.952;2024-03-08T15:04:42;15.20;;;8.50;;
72590;SDS011;60625;51.212;5.952;2024-03-08T15:09:43;20.50;;;10.40;;
72590;SDS011;60625;51.212;5.952;2024-03-08T15:14:43;20.30;;;9.70;;
72590;SDS011;60625;51.212;5.952;2024-03-08T15:19:44;14.90;;;8.40;;
72590;SDS011;60625;51.212;5.952;2024-03-08T15:24:45;16.80;;;9.10;;
72590;SDS011;60625;51.212;5.952;2024-03-08T15:29:46;15.20;;;7.70;;
72590;SDS011;60625;51.212;5.952;2024-03-08T15:34:49;16.10;;;8.60;;
72590;SDS011;60625;51.212;5.952;2024-03-08T15:39:51;17.00;;;8.90;;
72590;SDS011;60625;51.212;5.952;2024-03-08T15:44:51;16.30;;;8.70;;
72590;SDS011;60625;51.212;5.952;2024-03-08T15:49:52;15.20;;;8.40;;
72590;SDS011;60625;51.212;5.952;2024-03-08T15:54:57;15.20;;;7.80;;
72590;SDS011;60625;51.212;5.952;2024-03-08T16:00:03;17.70;;;7.50;;
72590;SDS011;60625;51.212;5.952;2024-03-08T16:05:22;17.10;;;8.40;;
72590;SDS011;60625;51.212;5.952;2024-03-08T16:10:23;13.10;;;7.40;;
72590;SDS011;60625;51.212;5.952;2024-03-08T16:15:24;13.40;;;7.10;;
72590;SDS011;60625;51.212;5.952;2024-03-08T16:20:26;17.50;;;8.40;;
72590;SDS011;60625;51.212;5.952;2024-03-08T16:25:27;15.50;;;7.70;;
72590;SDS011;60625;51.212;5.952;2024-03-08T16:30:27;15.50;;;7.80;;
72590;SDS011;60625;51.212;5.952;2024-03-08T16:35:32;16.40;;;8.10;;
72590;SDS011;60625;51.212;5.952;2024-03-08T16:40:34;20.00;;;8.60;;
72590;SDS011;60625;51.212;5.952;2024-03-08T16:45:38;15.40;;;7.70;;
72590;SDS011;60625;51.212;5.952;2024-03-08T16:50:39;14.30;;;7.50;;
72590;SDS011;60625;51.212;5.952;2024-03-08T16:55:45;16.90;;;7.60;;
72590;SDS011;60625;51.212;5.952;2024-03-08T17:00:51;11.70;;;6.60;;
72590;SDS011;60625;51.212;5.952;2024-03-08T17:05:52;13.10;;;7.00;;
72590;SDS011;60625;51.212;5.952;2024-03-08T17:11:05;21.20;;;8.00;;
72590;SDS011;60625;51.212;5.952;2024-03-08T17:16:08;14.40;;;7.60;;
72590;SDS011;60625;51.212;5.952;2024-03-08T17:21:13;13.20;;;7.40;;
72590;SDS011;60625;51.212;5.952;2024-03-08T17:26:14;17.80;;;7.40;;
72590;SDS011;60625;51.212;5.952;2024-03-08T17:31:16;14.60;;;7.50;;
72590;SDS011;60625;51.212;5.952;2024-03-08T17:36:17;16.00;;;8.50;;
72590;SDS011;60625;51.212;5.952;2024-03-08T17:41:20;15.30;;;7.90;;
72590;SDS011;60625;51.212;5.952;2024-03-08T17:46:23;21.40;;;7.70;;
72590;SDS011;60625;51.212;5.952;2024-03-08T17:51:23;16.50;;;7.90;;
72590;SDS011;60625;51.212;5.952;2024-03-08T17:56:24;16.40;;;8.60;;
72590;SDS011;60625;51.212;5.952;2024-03-08T18:01:25;15.90;;;8.00;;
72590;SDS011;60625;51.212;5.952;2024-03-08T18:06:30;15.70;;;7.70;;
72590;SDS011;60625;51.212;5.952;2024-03-08T18:11:32;16.50;;;7.80;;
72590;SDS011;60625;51.212;5.952;2024-03-08T18:16:35;17.90;;;8.40;;
72590;SDS011;60625;51.212;5.952;2024-03-08T18:21:39;16.90;;;8.70;;
72590;SDS011;60625;51.212;5.952;2024-03-08T18:26:39;16.00;;;7.70;;
72590;SDS011;60625;51.212;5.952;2024-03-08T18:31:42;19.70;;;9.20;;
72590;SDS011;60625;51.212;5.952;2024-03-08T18:36:43;16.10;;;8.80;;
72590;SDS011;60625;51.212;5.952;2024-03-08T18:41:45;18.20;;;8.70;;
72590;SDS011;60625;51.212;5.952;2024-03-08T18:46:46;16.60;;;8.30;;
72590;SDS011;60625;51.212;5.952;2024-03-08T18:51:47;18.10;;;9.00;;
72590;SDS011;60625;51.212;5.952;2024-03-08T18:56:52;17.10;;;8.70;;
72590;SDS011;60625;51.212;5.952;2024-03-08T19:01:55;19.10;;;9.20;;
72590;SDS011;60625;51.212;5.952;2024-03-08T19:06:55;23.30;;;9.50;;
72590;SDS011;60625;51.212;5.952;2024-03-08T19:11:56;18.10;;;8.90;;
72590;SDS011;60625;51.212;5.952;2024-03-08T19:16:57;17.10;;;8.90;;
72590;SDS011;60625;51.212;5.952;2024-03-08T19:21:58;18.70;;;9.80;;
72590;SDS011;60625;51.212;5.952;2024-03-08T19:26:59;24.20;;;10.20;;
72590;SDS011;60625;51.212;5.952;2024-03-08T19:32:01;17.70;;;9.10;;
72590;SDS011;60625;51.212;5.952;2024-03-08T19:37:02;22.80;;;10.30;;
72590;SDS011;60625;51.212;5.952;2024-03-08T19:42:03;21.40;;;10.10;;
72590;SDS011;60625;51.212;5.952;2024-03-08T19:47:05;24.40;;;11.90;;
72590;SDS011;60625;51.212;5.952;2024-03-08T19:52:09;19.40;;;9.80;;
72590;SDS011;60625;51.212;5.952;2024-03-08T19:57:10;24.30;;;10.90;;
72590;SDS011;60625;51.212;5.952;2024-03-08T20:02:13;21.60;;;10.50;;
72590;SDS011;60625;51.212;5.952;2024-03-08T20:07:17;23.30;;;11.60;;
72590;SDS011;60625;51.212;5.952;2024-03-08T20:12:18;21.20;;;10.80;;
72590;SDS011;60625;51.212;5.952;2024-03-08T20:17:20;22.20;;;10.80;;
72590;SDS011;60625;51.212;5.952;2024-03-08T20:22:23;20.20;;;10.60;;
72590;SDS011;60625;51.212;5.952;2024-03-08T20:27:24;21.80;;;11.20;;
72590;SDS011;60625;51.212;5.952;2024-03-08T20:32:30;25.90;;;11.60;;
72590;SDS011;60625;51.212;5.952;2024-03-08T20:37:31;23.50;;;11.80;;
72590;SDS011;60625;51.212;5.952;2024-03-08T20:42:31;19.60;;;9.90;;
72590;SDS011;60625;51.212;5.952;2024-03-08T20:47:33;23.60;;;11.10;;
72590;SDS011;60625;51.212;5.952;2024-03-08T20:52:36;22.60;;;9.80;;
72590;SDS011;60625;51.212;5.952;2024-03-08T20:57:40;23.10;;;11.00;;
72590;SDS011;60625;51.212;5.952;2024-03-08T21:02:48;22.50;;;10.70;;
72590;SDS011;60625;51.212;5.952;2024-03-08T21:07:50;25.20;;;11.40;;
72590;SDS011;60625;51.212;5.952;2024-03-08T21:12:52;23.20;;;10.80;;
72590;SDS011;60625;51.212;5.952;2024-03-08T21:17:55;22.60;;;11.20;;
72590;SDS011;60625;51.212;5.952;2024-03-08T21:22:56;23.90;;;11.60;;
72590;SDS011;60625;51.212;5.952;2024-03-08T21:27:58;24.70;;;11.80;;
72590;SDS011;60625;51.212;5.952;2024-03-08T21:33:03;22.80;;;11.10;;
72590;SDS011;60625;51.212;5.952;2024-03-08T21:38:10;24.10;;;11.40;;
72590;SDS011;60625;51.212;5.952;2024-03-08T21:43:11;22.30;;;11.40;;
72590;SDS011;60625;51.212;5.952;2024-03-08T21:48:12;23.40;;;11.10;;
72590;SDS011;60625;51.212;5.952;2024-03-08T21:53:15;21.60;;;10.80;;
72590;SDS011;60625;51.212;5.952;2024-03-08T21:58:17;23.80;;;11.30;;
72590;SDS011;60625;51.212;5.952;2024-03-08T22:03:18;24.90;;;11.60;;
72590;SDS011;60625;51.212;5.952;2024-03-08T22:08:21;21.50;;;10.70;;
72590;SDS011;60625;51.212;5.952;2024-03-08T22:13:22;25.20;;;12.20;;
72590;SDS011;60625;51.212;5.952;2024-03-08T22:18:23;23.70;;;10.30;;
72590;SDS011;60625;51.212;5.952;2024-03-08T22:23:25;23.90;;;11.90;;
72590;SDS011;60625;51.212;5.952;2024-03-08T22:28:27;24.80;;;12.10;;
72590;SDS011;60625;51.212;5.952;2024-03-08T22:33:27;22.20;;;10.60;;
72590;SDS011;60625;51.212;5.952;2024-03-08T22:38:27;26.50;;;11.80;;
72590;SDS011;60625;51.212;5.952;2024-03-08T22:43:31;25.60;;;11.70;;
72590;SDS011;60625;51.212;5.952;2024-03-08T22:48:35;26.90;;;13.00;;
72590;SDS011;60625;51.212;5.952;2024-03-08T22:53:45;21.50;;;10.90;;
72590;SDS011;60625;51.212;5.952;2024-03-08T22:58:45;24.40;;;11.70;;
72590;SDS011;60625;51.212;5.952;2024-03-08T23:03:46;19.50;;;9.20;;
72590;SDS011;60625;51.212;5.952;2024-03-08T23:08:48;21.00;;;10.00;;
72590;SDS011;60625;51.212;5.952;2024-03-08T23:13:49;22.80;;;10.60;;
72590;SDS011;60625;51.212;5.952;2024-03-08T23:18:49;24.30;;;10.60;;
72590;SDS011;60625;51.212;5.952;2024-03-08T23:23:50;26.60;;;11.00;;
72590;SDS011;60625;51.212;5.952;2024-03-08T23:28:51;24.80;;;12.00;;
72590;SDS011;60625;51.212;5.952;2024-03-08T23:33:52;25.30;;;12.20;;
72590;SDS011;60625;51.212;5.952;2024-03-08T23:38:53;26.60;;;12.60;;
72590;SDS011;60625;51.212;5.952;2024-03-08T23:43:55;27.50;;;11.90;;
72590;SDS011;60625;51.212;5.952;2024-03-08T23:48:55;26.20;;;11.30;;
72590;SDS011;60625;51.212;5.952;2024-03-08T23:53:56;26.80;;;13.20;;
72590;SDS011;60625;51.212;5.952;2024-03-08T23:59:00;25.40;;;10.70;;
